Главная страница
METAR-TAF:

METAR-TAF

Аэропорты :

Эль-Камышлы, Сирия

широта: 37-03N, долгота: 041-13E, высота над уровнем моря: 455 м

Текущие метеонаблюдения

Эта сводка был подготовлена 1 час и 9 минут назад, в 09:00 UTC
Ветер 4 Узел от северо-северо-восточный
Температура 37°C
Влажность 9%
Давление 1011 hPa
Видимость 10 км и более
Нет облачности ниже 1500 м, и нет кучево-дождевой облачности

METAR: OSKL 070900Z 02004KT CAVOK 37/M01 Q1011

Время: 13:09 (10:09 UTC)


TAF: отсутствует

Метеонаблюдения и прогнозы для более 4000 аэропортов (сводки METAR и TAF).

Имеющиеся станции представлены на карте желтыми и красными точками.

Чтобы увидеть название станции, наведите на нее мышь.

Затем щелкните, чтобы увидеть метеонаблюдения и метеопрогнозы.

Управление картой: чтобы увеличить масштаб, щелкните зеленые кнопки с черным крестиком; чтобы уменьшить масштаб, щелкните зеленую кнопку с тире; для просмотра соседних карт щелкайте зеленые стрелки.


METAR-TAF: